createdAt,value
2023-01-17T00:01:33.160Z,7.95
2023-01-17T00:04:00.689Z,6.47
2023-01-17T00:06:27.599Z,8.48
2023-01-17T00:08:54.563Z,6.82
2023-01-17T00:11:21.465Z,7.50
2023-01-17T00:13:48.387Z,6.25
2023-01-17T00:16:16.372Z,8.60
2023-01-17T00:18:43.331Z,6.47
2023-01-17T00:21:10.241Z,6.35
2023-01-17T00:23:37.161Z,5.35
2023-01-17T00:26:04.135Z,7.75
2023-01-17T00:28:31.061Z,5.85
2023-01-17T00:30:58.004Z,7.38
2023-01-17T00:33:24.897Z,6.97
2023-01-17T00:35:51.901Z,8.15
2023-01-17T00:38:18.809Z,7.03
2023-01-17T00:40:45.741Z,6.60
2023-01-17T00:43:12.714Z,6.43
2023-01-17T00:45:39.904Z,9.52
2023-01-17T00:48:07.116Z,8.50
2023-01-17T00:50:34.105Z,7.57
2023-01-17T00:53:01.011Z,8.27
2023-01-17T00:55:28.038Z,5.50
2023-01-17T00:57:54.932Z,6.65
2023-01-17T01:00:21.901Z,6.75
2023-01-17T01:02:48.850Z,7.00
2023-01-17T01:05:15.891Z,4.80
2023-01-17T01:07:42.904Z,6.97
2023-01-17T01:10:10.349Z,4.55
2023-01-17T01:12:37.291Z,7.25
2023-01-17T01:15:07.988Z,4.07
2023-01-17T01:17:39.551Z,7.53
2023-01-17T01:20:06.758Z,6.65
2023-01-17T01:22:37.071Z,8.20
2023-01-17T01:25:08.734Z,6.80
2023-01-17T01:27:35.864Z,8.35
2023-01-17T01:30:02.809Z,9.48
2023-01-17T01:32:30.062Z,6.65
2023-01-17T01:34:57.072Z,5.93
2023-01-17T01:37:23.986Z,6.28
2023-01-17T01:39:50.920Z,8.88
2023-01-17T01:42:17.962Z,9.40
2023-01-17T01:44:44.874Z,5.05
2023-01-17T01:47:11.757Z,7.38
2023-01-17T01:49:38.683Z,7.90
2023-01-17T01:52:05.700Z,5.55
2023-01-17T01:54:32.629Z,6.95
2023-01-17T01:56:59.611Z,6.70
2023-01-17T01:59:26.908Z,5.03
2023-01-17T02:01:53.925Z,6.07
2023-01-17T02:04:21.116Z,7.50
2023-01-17T02:06:48.043Z,6.13
2023-01-17T02:09:15.055Z,7.25
2023-01-17T02:11:41.965Z,6.28
2023-01-17T02:14:08.910Z,7.20
2023-01-17T02:16:36.157Z,8.82
2023-01-17T02:19:03.070Z,7.20
2023-01-17T02:21:29.991Z,7.30
2023-01-17T02:23:56.882Z,6.32
2023-01-17T02:26:24.112Z,7.07
2023-01-17T02:28:51.011Z,7.20
2023-01-17T02:31:17.935Z,7.05
2023-01-17T02:33:45.188Z,8.15
2023-01-17T02:36:12.172Z,6.00
2023-01-17T02:38:39.145Z,7.97
2023-01-17T02:41:06.061Z,6.95
2023-01-17T02:43:33.165Z,7.43
2023-01-17T02:46:00.217Z,9.15
2023-01-17T02:48:27.316Z,7.10
2023-01-17T02:50:54.965Z,7.43
2023-01-17T02:53:22.220Z,6.22
2023-01-17T02:55:49.169Z,8.80
2023-01-17T02:58:16.119Z,7.78
2023-01-17T03:00:43.553Z,5.93
2023-01-17T03:03:10.474Z,7.97
2023-01-17T03:05:37.689Z,7.57
2023-01-17T03:08:04.683Z,5.88
2023-01-17T03:10:31.992Z,5.50
2023-01-17T03:12:59.056Z,5.75
2023-01-17T03:15:26.164Z,7.35
2023-01-17T03:17:53.451Z,5.97
2023-01-17T03:20:22.566Z,4.93
2023-01-17T03:22:49.768Z,6.70
2023-01-17T03:25:16.712Z,6.20
2023-01-17T03:27:43.664Z,7.60
2023-01-17T03:30:10.656Z,6.07
2023-01-17T03:32:37.559Z,7.10
2023-01-17T03:35:04.462Z,7.40
2023-01-17T03:37:31.369Z,6.43
2023-01-17T03:39:58.307Z,8.23
2023-01-17T03:42:26.247Z,8.32
2023-01-17T03:44:53.162Z,7.45
2023-01-17T03:47:20.084Z,8.27
2023-01-17T03:49:46.989Z,6.82
2023-01-17T03:52:13.918Z,7.18
2023-01-17T03:54:40.824Z,5.90
2023-01-17T03:57:07.741Z,7.03
2023-01-17T03:59:34.810Z,6.32
2023-01-17T04:02:01.813Z,6.88
2023-01-17T04:04:28.951Z,5.78
2023-01-17T04:06:55.849Z,6.80
2023-01-17T04:09:22.797Z,7.88
2023-01-17T04:11:49.704Z,6.57
2023-01-17T04:14:16.609Z,6.68
2023-01-17T04:16:43.639Z,6.72
2023-01-17T04:19:10.612Z,8.73
2023-01-17T04:21:37.525Z,7.03
2023-01-17T04:24:04.440Z,7.22
2023-01-17T04:26:31.337Z,8.07
2023-01-17T04:28:58.262Z,7.40
2023-01-17T04:31:25.243Z,7.25
2023-01-17T04:33:52.183Z,7.03
2023-01-17T04:36:19.116Z,7.50
2023-01-17T04:38:46.014Z,7.75
2023-01-17T04:41:12.949Z,7.55
2023-01-17T04:43:39.857Z,7.30
2023-01-17T04:46:06.843Z,7.53
2023-01-17T04:48:33.745Z,7.38
2023-01-17T04:51:00.917Z,7.53
2023-01-17T04:53:28.008Z,8.02
2023-01-17T04:55:54.907Z,7.25
2023-01-17T04:58:21.810Z,7.82
2023-01-17T05:00:48.746Z,8.07
2023-01-17T05:03:15.694Z,7.72
2023-01-17T05:05:42.732Z,8.63
2023-01-17T05:08:09.674Z,9.70
2023-01-17T05:10:36.698Z,8.00
2023-01-17T05:13:03.595Z,8.40
2023-01-17T05:15:30.540Z,7.75
2023-01-17T05:17:57.493Z,8.30
2023-01-17T05:20:24.423Z,9.18
2023-01-17T05:22:51.392Z,9.52
2023-01-17T05:25:18.343Z,9.00
2023-01-17T05:27:45.258Z,8.00
2023-01-17T05:30:12.188Z,10.75
2023-01-17T05:32:39.090Z,9.55
2023-01-17T05:35:06.006Z,8.95
2023-01-17T05:37:33.110Z,10.23
2023-01-17T05:40:00.047Z,8.93
2023-01-17T05:42:29.342Z,9.00
2023-01-17T05:44:56.254Z,10.35
2023-01-17T05:47:23.152Z,9.45
2023-01-17T05:49:50.071Z,9.25
2023-01-17T05:52:16.966Z,8.63
2023-01-17T05:54:43.908Z,8.18
2023-01-17T05:57:10.861Z,7.47
2023-01-17T05:59:37.809Z,7.57
2023-01-17T06:02:04.764Z,7.70
2023-01-17T06:04:31.733Z,7.47
2023-01-17T06:06:58.681Z,5.97
2023-01-17T06:09:25.590Z,6.13
2023-01-17T06:11:52.491Z,5.65
2023-01-17T06:14:19.457Z,5.72
2023-01-17T06:16:46.418Z,5.43
2023-01-17T06:19:13.326Z,5.18
2023-01-17T06:21:40.257Z,5.47
2023-01-17T06:26:51.167Z,5.35
2023-01-17T06:29:18.067Z,4.82
2023-01-17T06:31:44.975Z,4.88
2023-01-17T06:34:11.867Z,5.65
2023-01-17T06:36:38.767Z,5.13
2023-01-17T06:39:05.659Z,5.30
2023-01-17T06:41:32.562Z,5.15
2023-01-17T06:43:59.467Z,6.25
2023-01-17T06:46:26.420Z,6.13
2023-01-17T06:48:53.582Z,6.80
2023-01-17T06:51:20.516Z,5.65
2023-01-17T06:53:47.414Z,6.93
2023-01-17T06:56:14.331Z,5.90
2023-01-17T06:58:41.223Z,7.05
2023-01-17T07:01:08.256Z,7.78
2023-01-17T07:03:35.209Z,6.93
2023-01-17T07:06:02.170Z,6.68
2023-01-17T07:08:29.240Z,7.00
2023-01-17T07:10:56.157Z,9.07
2023-01-17T07:13:23.136Z,6.65
2023-01-17T07:15:50.089Z,5.60
2023-01-17T07:18:17.018Z,5.18
2023-01-17T07:20:43.983Z,4.93
2023-01-17T07:23:10.939Z,4.90
2023-01-17T07:25:47.087Z,4.15
2023-01-17T07:28:14.148Z,3.63
2023-01-17T07:30:41.143Z,4.53
2023-01-17T07:33:14.118Z,4.68
2023-01-17T07:35:53.766Z,5.65
2023-01-17T07:38:20.685Z,1.88
2023-01-17T07:40:47.635Z,3.63
2023-01-17T07:43:25.220Z,2.00
2023-01-17T07:45:52.126Z,1.67
2023-01-17T07:48:19.039Z,0.65
2023-01-17T07:50:47.055Z,4.38
2023-01-17T07:53:13.953Z,1.65
2023-01-17T07:55:40.851Z,2.78
2023-01-17T07:58:07.771Z,1.08
2023-01-17T08:00:34.675Z,3.83
2023-01-17T08:03:01.822Z,2.40
2023-01-17T08:05:28.826Z,3.17
2023-01-17T08:07:55.852Z,5.53
2023-01-17T08:10:22.749Z,3.03
2023-01-17T08:12:49.668Z,4.35
2023-01-17T08:15:16.569Z,2.40
2023-01-17T08:17:43.503Z,1.90
2023-01-17T08:20:10.395Z,4.25
2023-01-17T08:22:37.284Z,3.20
2023-01-17T08:25:04.195Z,6.47
2023-01-17T08:27:31.096Z,2.63
2023-01-17T08:29:57.976Z,4.97
2023-01-17T08:32:24.910Z,4.82
2023-01-17T08:34:51.822Z,4.90
2023-01-17T08:37:18.733Z,5.63
2023-01-17T08:39:45.672Z,2.35
2023-01-17T08:42:12.590Z,5.32
2023-01-17T08:44:39.569Z,5.15
2023-01-17T08:47:06.528Z,4.22
2023-01-17T08:49:33.442Z,4.70
2023-01-17T08:52:00.346Z,5.80
2023-01-17T08:54:27.244Z,8.30
2023-01-17T08:56:54.851Z,5.80
2023-01-17T08:59:21.752Z,5.65
2023-01-17T09:01:48.770Z,8.43
2023-01-17T09:04:15.759Z,9.55
2023-01-17T09:06:42.713Z,9.23
2023-01-17T09:09:09.636Z,8.52
2023-01-17T09:11:36.547Z,9.00
2023-01-17T09:14:03.428Z,8.90
2023-01-17T09:16:30.386Z,8.13
2023-01-17T09:18:57.317Z,8.85
2023-01-17T09:21:24.207Z,8.18
2023-01-17T09:23:51.170Z,5.85
2023-01-17T09:26:18.066Z,6.85
2023-01-17T09:28:44.979Z,9.13
2023-01-17T09:31:12.077Z,9.38
2023-01-17T09:33:39.071Z,9.05
2023-01-17T09:36:05.995Z,7.53
2023-01-17T09:38:32.967Z,7.88
2023-01-17T09:40:59.939Z,11.95
2023-01-17T09:43:26.890Z,9.90
2023-01-17T09:45:53.819Z,7.68
2023-01-17T09:48:20.745Z,8.05
2023-01-17T09:50:47.669Z,9.88
2023-01-17T09:53:14.592Z,10.10
2023-01-17T09:55:41.554Z,10.05
2023-01-17T09:58:08.484Z,7.70
2023-01-17T10:00:35.436Z,8.80
2023-01-17T10:03:02.433Z,6.45
2023-01-17T10:05:29.384Z,10.77
2023-01-17T10:07:56.324Z,12.85
2023-01-17T10:10:23.232Z,7.95
2023-01-17T10:12:50.227Z,8.07
2023-01-17T10:15:17.171Z,6.38
2023-01-17T10:17:44.133Z,7.57
2023-01-17T10:20:11.080Z,6.20
2023-01-17T10:22:38.043Z,10.13
2023-01-17T10:25:04.973Z,6.57
2023-01-17T10:27:31.904Z,6.47
2023-01-17T10:29:58.817Z,6.95
2023-01-17T10:32:26.065Z,9.32
2023-01-17T10:34:53.281Z,8.55
2023-01-17T10:37:20.246Z,6.07
2023-01-17T10:39:47.178Z,7.15
2023-01-17T10:42:14.105Z,10.05
2023-01-17T10:44:41.046Z,8.07
2023-01-17T10:47:07.988Z,9.70
2023-01-17T10:49:35.089Z,8.60
2023-01-17T10:52:03.202Z,7.38
2023-01-17T10:54:30.150Z,6.05
2023-01-17T10:56:57.064Z,6.32
2023-01-17T10:59:23.987Z,6.05
2023-01-17T11:01:51.899Z,4.63
2023-01-17T11:04:18.897Z,5.25
2023-01-17T11:06:57.602Z,5.88
2023-01-17T11:09:25.429Z,6.22
2023-01-17T11:11:52.555Z,6.20
2023-01-17T11:14:19.505Z,7.43
2023-01-17T11:16:47.483Z,5.07
2023-01-17T11:19:14.481Z,5.85
2023-01-17T11:21:41.403Z,8.27
2023-01-17T11:24:08.633Z,7.40
2023-01-17T11:26:35.601Z,5.68
2023-01-17T11:29:03.185Z,5.47
2023-01-17T11:31:30.237Z,7.93
2023-01-17T11:33:57.171Z,7.15
2023-01-17T11:36:24.091Z,7.03
2023-01-17T11:38:51.151Z,5.53
2023-01-17T11:41:18.090Z,9.52
2023-01-17T11:43:45.019Z,5.32
2023-01-17T11:46:12.069Z,9.23
2023-01-17T11:48:39.035Z,5.45
2023-01-17T11:51:05.961Z,8.48
2023-01-17T11:53:32.947Z,5.18
2023-01-17T11:55:59.868Z,6.28
2023-01-17T11:58:26.833Z,10.73
2023-01-17T12:00:53.780Z,6.45
2023-01-17T12:03:20.729Z,9.50
2023-01-17T12:05:47.638Z,4.70
2023-01-17T12:08:14.616Z,5.90
2023-01-17T12:10:41.563Z,7.68
2023-01-17T12:13:08.497Z,6.03
2023-01-17T12:15:35.494Z,4.70
2023-01-17T12:18:02.435Z,6.25
2023-01-17T12:20:29.356Z,6.43
2023-01-17T12:22:56.317Z,8.55
2023-01-17T12:25:25.635Z,4.82
2023-01-17T12:27:52.590Z,4.78
2023-01-17T12:30:19.546Z,5.45
2023-01-17T12:32:46.465Z,8.32
2023-01-17T12:35:13.369Z,5.70
2023-01-17T12:37:40.368Z,7.28
2023-01-17T12:40:07.518Z,8.45
2023-01-17T12:42:34.473Z,5.88
2023-01-17T12:45:01.375Z,6.70
2023-01-17T12:47:28.319Z,6.00
2023-01-17T12:49:55.257Z,5.10
2023-01-17T12:52:22.178Z,6.50
2023-01-17T12:54:49.130Z,7.90
2023-01-17T12:57:16.081Z,4.35
2023-01-17T12:59:43.008Z,4.13
2023-01-17T13:02:09.967Z,4.28
2023-01-17T13:04:41.989Z,5.93
2023-01-17T13:07:13.881Z,3.20
2023-01-17T13:09:40.795Z,5.32
2023-01-17T13:12:07.736Z,5.32
2023-01-17T13:14:34.739Z,5.05
2023-01-17T13:17:01.636Z,4.80
2023-01-17T13:19:28.674Z,4.20
2023-01-17T13:21:55.657Z,5.63
2023-01-17T13:24:22.673Z,3.13
2023-01-17T13:26:52.808Z,4.78
2023-01-17T13:29:19.869Z,6.50
2023-01-17T13:31:46.945Z,5.53
2023-01-17T13:34:14.333Z,9.15
2023-01-17T13:36:41.351Z,7.78
2023-01-17T13:39:08.910Z,7.93
2023-01-17T13:47:19.305Z,4.97
2023-01-17T13:49:46.248Z,5.93
2023-01-17T13:52:14.401Z,6.97
2023-01-17T13:57:22.860Z,3.75
2023-01-17T13:59:49.778Z,8.05
2023-01-17T14:02:19.866Z,6.13
2023-01-17T14:04:46.831Z,3.83
2023-01-17T14:09:57.516Z,5.38
2023-01-17T14:15:05.252Z,6.88
2023-01-17T14:17:32.150Z,5.82
2023-01-17T14:19:59.095Z,4.90
2023-01-17T14:22:28.470Z,4.95
2023-01-17T14:24:55.366Z,5.07
2023-01-17T14:27:22.265Z,4.07
2023-01-17T14:29:49.259Z,5.38
2023-01-17T14:32:16.176Z,4.47
2023-01-17T14:34:43.108Z,8.88
2023-01-17T14:37:10.095Z,3.90
2023-01-17T14:39:37.032Z,4.45
2023-01-17T14:42:03.956Z,3.78
2023-01-17T14:44:33.410Z,3.47
2023-01-17T14:47:01.133Z,3.40
2023-01-17T14:49:28.060Z,9.35
2023-01-17T14:51:55.018Z,5.35
2023-01-17T14:59:40.252Z,7.93
2023-01-17T15:02:08.765Z,6.82
2023-01-17T15:04:35.849Z,5.70
2023-01-17T15:07:02.768Z,4.43
2023-01-17T15:09:29.785Z,5.78
2023-01-17T15:11:56.780Z,5.05
2023-01-17T15:14:23.698Z,3.40
2023-01-17T15:16:50.636Z,4.03
2023-01-17T15:19:17.549Z,6.32
2023-01-17T15:21:44.470Z,6.45
2023-01-17T15:24:11.436Z,7.32
2023-01-17T15:26:38.350Z,8.45
2023-01-17T15:29:05.303Z,6.80
2023-01-17T15:31:32.207Z,5.28
2023-01-17T15:33:59.104Z,9.68
2023-01-17T15:36:27.076Z,5.22
2023-01-17T15:41:45.498Z,6.68
2023-01-17T15:44:12.435Z,4.07
2023-01-17T15:46:39.356Z,6.03
2023-01-17T15:49:06.290Z,5.25
2023-01-17T15:51:33.199Z,5.15
2023-01-17T15:54:00.186Z,4.30
2023-01-17T15:56:27.126Z,3.22
2023-01-17T15:58:54.061Z,4.05
2023-01-17T16:01:21.271Z,6.00
2023-01-17T16:03:48.243Z,5.30
2023-01-17T16:06:15.197Z,6.30
2023-01-17T16:08:43.324Z,5.20
2023-01-17T16:11:10.356Z,6.55
2023-01-17T16:13:37.290Z,7.10
2023-01-17T16:16:04.312Z,7.72
2023-01-17T16:18:31.288Z,7.28
2023-01-17T16:20:58.222Z,6.30
2023-01-17T16:23:25.145Z,8.27
2023-01-17T16:25:55.042Z,9.90
2023-01-17T16:28:21.978Z,5.90
2023-01-17T16:30:49.006Z,7.60
2023-01-17T16:33:15.995Z,6.40
2023-01-17T16:35:43.000Z,6.30
2023-01-17T16:38:09.974Z,5.20
2023-01-17T16:40:36.939Z,7.38
2023-01-17T16:43:03.871Z,7.78
2023-01-17T16:45:30.819Z,6.32
2023-01-17T16:47:57.752Z,8.40
2023-01-17T16:50:24.748Z,6.30
2023-01-17T16:52:51.697Z,7.93
2023-01-17T16:55:18.655Z,9.00
2023-01-17T16:57:45.624Z,6.43
2023-01-17T17:00:12.576Z,11.65
2023-01-17T17:02:39.530Z,5.60
2023-01-17T17:05:06.535Z,4.93
2023-01-17T17:07:33.449Z,7.63
2023-01-17T17:10:00.377Z,12.40
2023-01-17T17:12:27.295Z,6.63
2023-01-17T17:14:54.243Z,11.02
2023-01-17T17:17:21.151Z,5.93
2023-01-17T17:19:48.209Z,7.63
2023-01-17T17:22:15.144Z,8.07
2023-01-17T17:24:42.114Z,5.30
2023-01-17T17:27:09.097Z,7.85
2023-01-17T17:29:36.138Z,7.93
2023-01-17T17:32:03.064Z,7.60
2023-01-17T17:34:29.980Z,9.00
2023-01-17T17:36:56.899Z,10.60
2023-01-17T17:39:23.816Z,7.38
2023-01-17T17:41:50.733Z,7.22
2023-01-17T17:44:17.680Z,9.50
2023-01-17T17:46:44.652Z,8.10
2023-01-17T17:49:11.608Z,9.70
2023-01-17T17:51:42.125Z,8.95
2023-01-17T17:54:09.037Z,6.65
2023-01-17T17:56:35.985Z,8.85
2023-01-17T17:59:02.923Z,8.43
2023-01-17T18:01:29.976Z,8.57
2023-01-17T18:03:57.070Z,8.50
2023-01-17T18:06:24.008Z,8.93
2023-01-17T18:08:50.928Z,9.98
2023-01-17T18:11:17.868Z,9.07
2023-01-17T18:13:44.786Z,11.88
2023-01-17T18:16:11.761Z,9.18
2023-01-17T18:18:38.697Z,10.40
2023-01-17T18:21:05.657Z,10.10
2023-01-17T18:23:32.660Z,9.38
2023-01-17T18:25:59.585Z,9.60
2023-01-17T18:28:26.503Z,11.43
2023-01-17T18:30:53.418Z,10.52
2023-01-17T18:33:20.316Z,11.77
2023-01-17T18:35:47.255Z,13.77
2023-01-17T18:38:14.208Z,9.70
2023-01-17T18:40:41.270Z,11.70
2023-01-17T18:43:08.255Z,14.02
2023-01-17T18:45:35.168Z,9.18
2023-01-17T18:56:24.444Z,11.85
2023-01-17T18:57:20.684Z,8.68
2023-01-17T18:58:51.364Z,8.52
2023-01-17T19:01:18.478Z,9.43
2023-01-17T19:03:45.475Z,11.68
2023-01-17T19:12:13.277Z,11.73
2023-01-17T19:14:38.560Z,12.32
2023-01-17T19:17:05.478Z,12.68
2023-01-17T19:19:32.414Z,11.02
2023-01-17T19:30:50.119Z,12.40
2023-01-17T19:33:07.584Z,10.45
2023-01-17T19:35:34.511Z,12.68
2023-01-17T19:38:09.082Z,12.88
2023-01-17T19:40:36.092Z,12.07
2023-01-17T19:43:03.191Z,13.93
2023-01-17T19:45:30.153Z,12.02
2023-01-17T19:47:57.584Z,13.40
2023-01-17T19:50:24.702Z,11.32
2023-01-17T19:52:53.178Z,14.27
2023-01-17T19:55:20.195Z,11.40
2023-01-17T19:57:47.111Z,11.52
2023-01-17T20:00:14.059Z,13.38
2023-01-17T20:02:41.124Z,14.98
2023-01-17T20:05:14.253Z,14.55
2023-01-17T20:07:41.181Z,15.20
2023-01-17T20:10:08.931Z,13.70
2023-01-17T20:12:36.031Z,15.65
2023-01-17T20:15:03.200Z,13.60
2023-01-17T20:17:34.588Z,16.00
2023-01-17T20:20:01.701Z,12.85
2023-01-17T20:22:28.615Z,15.68
2023-01-17T20:24:55.517Z,11.45
2023-01-17T20:27:22.447Z,12.43
2023-01-17T20:29:49.400Z,15.80
2023-01-17T20:32:16.317Z,11.45
2023-01-17T20:34:45.524Z,12.98
2023-01-17T20:37:12.601Z,14.70
2023-01-17T20:39:39.584Z,12.70
2023-01-17T20:42:06.507Z,11.85
2023-01-17T20:44:33.392Z,14.77
2023-01-17T20:47:00.335Z,13.27
2023-01-17T20:49:27.396Z,15.20
2023-01-17T20:51:54.396Z,15.60
2023-01-17T20:54:21.545Z,16.08
2023-01-17T20:56:48.534Z,14.98
2023-01-17T20:59:16.036Z,15.25
2023-01-17T21:01:46.695Z,15.85
2023-01-17T21:04:15.993Z,15.23
2023-01-17T21:06:43.187Z,16.60
2023-01-17T21:09:10.595Z,16.08
2023-01-17T21:11:38.550Z,15.43
2023-01-17T21:14:05.932Z,15.50
2023-01-17T21:16:33.038Z,14.80
2023-01-17T21:19:00.605Z,11.88
2023-01-17T21:21:30.143Z,14.98
2023-01-17T21:23:57.137Z,14.35
2023-01-17T21:26:24.607Z,14.88
2023-01-17T21:28:51.820Z,16.48
2023-01-17T21:31:20.704Z,18.65
2023-01-17T21:33:47.987Z,13.65
2023-01-17T21:36:15.020Z,15.30
2023-01-17T21:38:41.991Z,15.38
2023-01-17T21:41:08.991Z,13.23
2023-01-17T21:43:36.065Z,13.70
2023-01-17T21:46:03.246Z,15.93
2023-01-17T21:48:30.268Z,16.80
2023-01-17T21:50:57.396Z,13.38
2023-01-17T21:53:24.692Z,14.80
2023-01-17T21:55:52.074Z,15.85
2023-01-17T21:58:19.560Z,17.17
2023-01-17T22:00:48.013Z,15.30
2023-01-17T22:03:15.082Z,18.70
2023-01-17T22:05:42.658Z,17.58
2023-01-17T22:08:10.394Z,14.88
2023-01-17T22:10:37.574Z,14.70
2023-01-17T22:13:04.589Z,15.20
2023-01-17T22:15:33.131Z,16.88
2023-01-17T22:18:00.519Z,16.15
2023-01-17T22:20:28.127Z,14.02
2023-01-17T22:22:55.323Z,13.65
2023-01-17T22:25:23.325Z,17.10
2023-01-17T22:27:50.351Z,14.15
2023-01-17T22:30:17.245Z,18.10
2023-01-17T22:32:44.155Z,16.95
2023-01-17T22:35:23.762Z,18.63
2023-01-17T22:37:51.015Z,17.52
2023-01-17T22:43:03.931Z,16.33
2023-01-17T22:48:18.556Z,16.63
2023-01-17T22:50:51.890Z,15.25
2023-01-17T22:53:20.295Z,18.00
2023-01-17T22:55:58.982Z,16.90
2023-01-17T22:58:26.372Z,19.20
2023-01-17T23:00:56.237Z,15.40
2023-01-17T23:03:23.203Z,18.17
2023-01-17T23:05:50.170Z,15.68
2023-01-17T23:08:17.081Z,15.68
2023-01-17T23:10:44.082Z,18.27
2023-01-17T23:13:11.001Z,16.80
2023-01-17T23:15:37.932Z,19.42
2023-01-17T23:18:04.945Z,18.88
2023-01-17T23:20:31.919Z,16.70
2023-01-17T23:22:59.167Z,20.27
2023-01-17T23:25:26.300Z,23.33
2023-01-17T23:27:53.232Z,24.25
2023-01-17T23:30:20.150Z,23.63
2023-01-17T23:32:47.078Z,18.52
2023-01-17T23:35:13.979Z,20.20
2023-01-17T23:37:40.925Z,21.05
2023-01-17T23:40:07.827Z,18.48
2023-01-17T23:42:34.807Z,17.65
2023-01-17T23:45:01.723Z,20.70
2023-01-17T23:47:31.144Z,22.48
2023-01-17T23:49:58.179Z,20.67
2023-01-17T23:52:25.806Z,19.30
2023-01-17T23:54:53.327Z,19.45
2023-01-17T23:57:20.236Z,21.95
2023-01-17T23:59:47.125Z,17.40
